Terminal Aerodrome Forecast
Issued by NWS

Current Version | Previous Version | Text Only | Print | Product List | Glossary On
Versions: 1 2 3 4 5 6 7 8 9 10 11 12 13 14 15 16 17 18 19 20 21 22 23 24 25 26 27 28 29 30 31 32 33 34 35 36 37 38 39 40 41 42 43
000
FTUS41 KBOX 251744
TAFACK
TAF
KACK 251744Z 2518/2618 20014G20KT P6SM SCT140
     FM251900 20012G20KT P6SM BKN070
     FM252300 18013KT 6SM BR VCTS BKN050CB
     FM260400 22010KT 1SM BR VCTS BKN008CB
     FM260600 23009KT 3/4SM BR BKN003
     FM261100 27009KT P6SM SCT008
     FM261600 25010KT P6SM FEW200=

USA.gov is the U.S. government's official web portal to all federal, state and local government web resources and services.